Time;durP1;ratioP1;P1;durP2;ratioP2;P2;SDS_P1;SDS_P2;PMS_P1;PMS_P2;Temp;Humidity;BMP_temperature;BMP_pressure;BME280_temperature;BME280_humidity;BME280_pressure;Samples;Min_cycle;Max_cycle;Signal;HPM_P1;HPM_P2
2022/05/29 00:00:12;;;;;;;12.77;3.22;;;10.70;99.90;;;;;;5063369;28;20507;-34
2022/05/29 00:02:41;;;;;;;11.57;2.85;;;10.70;99.90;;;;;;5070395;28;20044;-34
2022/05/29 00:05:08;;;;;;;17.38;3.20;;;10.70;99.90;;;;;;5063314;28;21185;-34
2022/05/29 00:07:35;;;;;;;13.23;3.70;;;10.60;99.90;;;;;;5067014;28;20127;-34
2022/05/29 00:10:03;;;;;;;9.13;3.38;;;10.70;99.90;;;;;;5059472;28;20423;-34
2022/05/29 00:12:30;;;;;;;8.77;2.53;;;10.60;99.90;;;;;;5052154;28;20059;-33
2022/05/29 00:14:56;;;;;;;12.88;3.05;;;10.60;99.90;;;;;;5065794;28;20408;-33
2022/05/29 00:17:23;;;;;;;13.93;3.13;;;10.60;99.90;;;;;;5064699;28;20075;-33
2022/05/29 00:19:51;;;;;;;18.10;3.78;;;10.60;99.90;;;;;;5051228;28;20049;-33
2022/05/29 00:22:20;;;;;;;8.50;3.00;;;10.60;99.90;;;;;;5054721;28;20057;-34
2022/05/29 00:24:47;;;;;;;13.57;3.63;;;10.60;99.90;;;;;;5064320;28;20053;-34
2022/05/29 00:27:16;;;;;;;13.65;3.13;;;10.70;99.90;;;;;;5055447;28;20051;-34
2022/05/29 00:29:43;;;;;;;11.20;3.00;;;10.60;99.90;;;;;;5066661;28;20057;-34
2022/05/29 00:32:10;;;;;;;13.05;3.90;;;10.60;99.90;;;;;;5068176;28;20055;-34
2022/05/29 00:34:36;;;;;;;11.32;3.33;;;10.70;99.90;;;;;;5059531;28;20131;-34
2022/05/29 00:37:05;;;;;;;10.07;3.45;;;10.60;99.90;;;;;;5057486;28;20049;-33
2022/05/29 00:39:32;;;;;;;8.52;2.90;;;10.70;99.90;;;;;;5063101;28;20135;-33
2022/05/29 00:41:58;;;;;;;16.48;3.78;;;10.70;99.90;;;;;;5051934;28;20049;-34
2022/05/29 00:44:25;;;;;;;10.98;3.38;;;10.70;99.90;;;;;;5071237;28;20048;-34
2022/05/29 00:46:53;;;;;;;14.75;3.50;;;10.70;99.90;;;;;;5070858;28;20044;-33
2022/05/29 00:49:22;;;;;;;14.68;3.35;;;10.70;99.90;;;;;;5058219;28;20045;-33
2022/05/29 00:51:51;;;;;;;12.35;3.72;;;10.70;99.90;;;;;;5051938;28;20045;-33
2022/05/29 00:54:19;;;;;;;8.63;2.70;;;10.70;99.90;;;;;;5058760;28;20079;-33
2022/05/29 00:56:46;;;;;;;12.02;3.20;;;10.70;99.90;;;;;;5053095;28;20060;-33
2022/05/29 00:59:15;;;;;;;11.95;3.42;;;10.70;99.90;;;;;;5057000;28;20151;-33
2022/05/29 01:01:42;;;;;;;14.68;3.65;;;10.70;99.90;;;;;;5065303;28;20059;-33
2022/05/29 01:04:09;;;;;;;16.75;3.80;;;10.70;99.90;;;;;;5059974;28;20049;-33
2022/05/29 01:06:36;;;;;;;18.08;4.32;;;10.70;99.90;;;;;;5067967;28;20060;-33
2022/05/29 01:09:03;;;;;;;12.63;3.38;;;10.70;99.90;;;;;;5069992;28;20490;-33
2022/05/29 01:11:38;;;;;;;19.05;3.80;;;10.60;99.90;;;;;;5068151;28;20390;-33
2022/05/29 01:14:10;;;;;;;16.23;3.50;;;10.60;99.90;;;;;;5055566;28;20128;-33
2022/05/29 01:16:42;;;;;;;18.15;3.97;;;10.60;99.90;;;;;;5059392;28;20040;-33
2022/05/29 01:19:41;;;;;;;9.57;3.28;;;10.60;99.90;;;;;;5073544;28;20040;-33
2022/05/29 01:22:16;;;;;;;15.35;4.10;;;10.60;99.90;;;;;;5055140;28;20059;-34
2022/05/29 01:24:58;;;;;;;14.18;3.20;;;10.60;99.90;;;;;;5069435;28;20408;-34
2022/05/29 01:27:52;;;;;;;15.65;3.50;;;10.60;99.90;;;;;;5064023;28;20056;-34
2022/05/29 01:30:21;;;;;;;16.77;3.55;;;10.60;99.90;;;;;;5057691;28;20049;-33
2022/05/29 01:32:58;;;;;;;11.23;2.70;;;10.60;99.90;;;;;;5065192;28;20045;-33
2022/05/29 01:35:26;;;;;;;20.15;4.20;;;10.60;99.90;;;;;;5057673;28;20048;-33
2022/05/29 01:38:00;;;;;;;18.65;4.07;;;10.60;99.90;;;;;;5057833;28;20055;-33
2022/05/29 01:40:30;;;;;;;12.88;3.33;;;10.60;99.90;;;;;;5060120;28;20049;-33
2022/05/29 01:43:06;;;;;;;16.98;4.05;;;10.60;99.90;;;;;;5055252;28;20049;-33
2022/05/29 01:45:53;;;;;;;14.90;3.63;;;10.60;99.90;;;;;;5073227;28;20082;-34
2022/05/29 01:48:21;;;;;;;16.73;3.65;;;10.60;99.90;;;;;;5064302;28;20077;-34
2022/05/29 01:50:51;;;;;;;19.95;3.85;;;10.50;99.90;;;;;;5053349;28;20489;-34
2022/05/29 01:53:21;;;;;;;14.57;3.85;;;10.50;99.90;;;;;;5058013;28;20124;-33
2022/05/29 01:55:49;;;;;;;18.73;4.07;;;10.50;99.90;;;;;;5068469;28;20390;-34
2022/05/29 01:58:19;;;;;;;18.08;4.18;;;10.50;99.90;;;;;;5054812;28;20053;-33
2022/05/29 02:00:47;;;;;;;15.15;3.78;;;10.50;99.90;;;;;;5054673;28;20053;-33
2022/05/29 02:03:16;;;;;;;13.98;3.38;;;10.40;99.90;;;;;;5072154;28;20400;-34
2022/05/29 02:05:43;;;;;;;17.20;4.38;;;10.40;99.90;;;;;;5072569;28;20056;-33
2022/05/29 02:08:12;;;;;;;14.38;3.25;;;10.50;99.90;;;;;;5067340;28;20048;-33
2022/05/29 02:10:41;;;;;;;12.70;3.33;;;10.40;99.90;;;;;;5071520;28;20415;-34
2022/05/29 02:13:10;;;;;;;14.38;3.28;;;10.40;99.90;;;;;;5069635;28;20049;-34
2022/05/29 02:15:40;;;;;;;15.80;3.15;;;10.40;99.90;;;;;;5052338;28;20056;-34
2022/05/29 02:18:12;;;;;;;15.63;3.53;;;10.40;99.90;;;;;;5057916;28;20059;-34
2022/05/29 02:20:41;;;;;;;13.15;3.22;;;10.40;99.90;;;;;;5062273;28;20048;-34
2022/05/29 02:23:10;;;;;;;14.10;3.05;;;10.40;99.90;;;;;;5058220;28;20045;-34
2022/05/29 02:25:37;;;;;;;16.67;3.25;;;10.40;99.90;;;;;;5053629;28;20044;-34
2022/05/29 02:28:07;;;;;;;10.88;3.28;;;10.40;99.90;;;;;;5067703;28;20049;-34
2022/05/29 02:30:39;;;;;;;11.68;2.75;;;10.40;99.90;;;;;;5056073;28;20123;-34
2022/05/29 02:33:11;;;;;;;15.13;3.78;;;10.40;99.90;;;;;;5065781;28;20128;-34
2022/05/29 02:35:41;;;;;;;16.30;3.38;;;10.40;99.90;;;;;;5062487;28;20056;-34
2022/05/29 02:38:08;;;;;;;9.93;2.85;;;10.40;99.90;;;;;;5061839;28;20048;-34
2022/05/29 02:40:41;;;;;;;18.08;3.45;;;10.40;99.90;;;;;;5062839;28;20154;-34
2022/05/29 02:43:11;;;;;;;10.68;3.38;;;10.40;99.90;;;;;;5066980;28;20063;-34
2022/05/29 02:45:41;;;;;;;16.50;3.22;;;10.40;99.90;;;;;;5059951;28;20543;-34
2022/05/29 02:48:12;;;;;;;13.27;4.13;;;10.40;99.90;;;;;;5059828;28;20063;-34
2022/05/29 02:50:42;;;;;;;12.65;3.10;;;10.40;99.90;;;;;;5064933;28;20048;-34
2022/05/29 02:53:10;;;;;;;15.90;3.42;;;10.30;99.90;;;;;;5067719;28;20040;-34
2022/05/29 02:55:37;;;;;;;20.05;4.22;;;10.30;99.90;;;;;;5072136;28;20463;-34
2022/05/29 02:58:06;;;;;;;15.13;3.40;;;10.40;99.90;;;;;;5060089;28;20060;-34
2022/05/29 03:00:49;;;;;;;14.50;3.42;;;10.30;99.90;;;;;;5072853;28;20062;-34
2022/05/29 03:03:21;;;;;;;15.85;4.25;;;10.30;99.90;;;;;;5058983;28;20473;-34
2022/05/29 03:05:51;;;;;;;10.88;3.83;;;10.30;99.90;;;;;;5070640;28;20059;-34
2022/05/29 03:08:27;;;;;;;19.55;3.85;;;10.30;99.90;;;;;;5070389;28;20052;-34
2022/05/29 03:10:56;;;;;;;15.15;3.55;;;10.40;99.90;;;;;;5070113;28;20052;-34
2022/05/29 03:13:28;;;;;;;16.55;3.38;;;10.30;99.90;;;;;;5053913;28;20041;-33
2022/05/29 03:15:58;;;;;;;12.57;3.88;;;10.30;99.90;;;;;;5065213;28;20126;-34
2022/05/29 03:18:40;;;;;;;11.20;2.70;;;10.30;99.90;;;;;;5067262;28;20522;-34
2022/05/29 03:21:10;;;;;;;13.40;3.08;;;10.30;99.90;;;;;;5069015;28;20048;-33
2022/05/29 03:23:41;;;;;;;14.35;4.00;;;10.30;99.90;;;;;;5061706;28;20049;-33
2022/05/29 03:26:11;;;;;;;12.55;3.53;;;10.40;99.90;;;;;;5067322;28;20048;-33
2022/05/29 03:28:40;;;;;;;13.65;3.95;;;10.30;99.90;;;;;;5066066;28;20055;-34
2022/05/29 03:31:08;;;;;;;19.38;3.78;;;10.30;99.90;;;;;;5069519;28;20068;-34
2022/05/29 03:33:36;;;;;;;13.40;3.60;;;10.40;99.90;;;;;;5057523;28;20323;-34
2022/05/29 03:36:06;;;;;;;15.23;3.67;;;10.30;99.90;;;;;;5065851;28;20045;-34
2022/05/29 03:38:33;;;;;;;15.55;3.25;;;10.30;99.90;;;;;;5061466;28;20122;-34
2022/05/29 03:41:00;;;;;;;13.50;3.30;;;10.30;99.90;;;;;;5071880;28;20058;-34
2022/05/29 03:43:27;;;;;;;17.20;3.92;;;10.30;99.90;;;;;;5063780;28;20080;-34
2022/05/29 03:45:53;;;;;;;15.57;2.88;;;10.30;99.90;;;;;;5055099;28;20045;-34
2022/05/29 03:48:20;;;;;;;14.52;3.47;;;10.40;99.90;;;;;;5076536;28;20066;-35
2022/05/29 03:50:48;;;;;;;14.93;3.28;;;10.40;99.90;;;;;;5070309;28;20468;-35
2022/05/29 03:53:15;;;;;;;18.95;3.83;;;10.40;99.90;;;;;;5056324;28;20058;-35
2022/05/29 03:55:41;;;;;;;15.93;3.42;;;10.40;99.90;;;;;;5053130;28;20052;-35
2022/05/29 03:58:08;;;;;;;13.60;2.67;;;10.40;99.90;;;;;;5067086;28;20131;-35
2022/05/29 04:00:35;;;;;;;11.68;2.65;;;10.40;99.90;;;;;;5053370;28;20071;-35
2022/05/29 04:03:02;;;;;;;14.88;3.20;;;10.40;99.90;;;;;;5055465;28;20041;-35
2022/05/29 04:05:29;;;;;;;12.25;2.90;;;10.50;99.90;;;;;;5051625;28;20057;-32
2022/05/29 04:13:26;;;;;;;12.75;2.95;;;10.50;99.90;;;;;;5052161;28;20041;-33
2022/05/29 04:15:53;;;;;;;12.18;3.13;;;10.50;99.90;;;;;;5058569;28;20156;-34
2022/05/29 04:18:20;;;;;;;11.68;3.33;;;10.50;99.90;;;;;;5062286;28;20136;-34
2022/05/29 04:20:50;;;;;;;11.48;2.97;;;10.50;99.90;;;;;;5057313;28;20040;-33
2022/05/29 04:23:19;;;;;;;7.68;2.35;;;10.60;99.90;;;;;;5058403;28;20044;-34
2022/05/29 04:25:45;;;;;;;12.30;2.95;;;10.60;99.90;;;;;;5053984;28;20106;-34
2022/05/29 04:28:12;;;;;;;13.80;3.33;;;10.60;99.90;;;;;;5057710;28;20051;-34
2022/05/29 04:30:39;;;;;;;12.93;2.95;;;10.60;99.90;;;;;;5053590;28;20049;-34
2022/05/29 04:33:06;;;;;;;15.60;4.15;;;10.60;99.90;;;;;;5051060;28;20063;-34
2022/05/29 04:35:36;;;;;;;11.02;3.10;;;10.60;99.90;;;;;;5051776;28;20238;-34
2022/05/29 04:38:02;;;;;;;16.80;3.97;;;10.60;99.90;;;;;;5051526;28;20056;-34
2022/05/29 04:40:31;;;;;;;19.77;3.30;;;10.60;99.90;;;;;;5074760;28;20052;-34
2022/05/29 04:42:57;;;;;;;12.35;2.70;;;10.70;99.90;;;;;;5073481;28;20066;-34
2022/05/29 04:45:24;;;;;;;10.27;2.90;;;10.70;99.90;;;;;;5068596;28;20062;-34
2022/05/29 04:47:51;;;;;;;13.00;3.25;;;10.70;99.90;;;;;;5060520;28;20048;-34
2022/05/29 04:50:18;;;;;;;13.02;3.03;;;10.70;99.90;;;;;;5073350;28;20218;-34
2022/05/29 04:52:45;;;;;;;13.85;2.83;;;10.70;99.90;;;;;;5068689;28;20419;-34
2022/05/29 04:55:12;;;;;;;13.20;3.30;;;10.70;99.90;;;;;;5057232;28;20064;-35
2022/05/29 04:57:40;;;;;;;13.80;3.08;;;10.70;99.90;;;;;;5069042;28;20049;-35
2022/05/29 05:00:07;;;;;;;13.70;3.10;;;10.70;99.90;;;;;;5062081;28;20040;-36
2022/05/29 05:02:34;;;;;;;12.30;2.92;;;10.80;99.90;;;;;;5056109;28;20049;-35
2022/05/29 05:05:01;;;;;;;13.30;2.78;;;10.80;99.90;;;;;;5055398;28;20453;-36
2022/05/29 05:07:27;;;;;;;9.23;2.65;;;10.80;99.90;;;;;;5063721;28;20048;-36
2022/05/29 05:09:54;;;;;;;9.48;2.30;;;10.80;99.90;;;;;;5072745;28;20051;-36
2022/05/29 05:12:21;;;;;;;15.32;3.00;;;10.80;99.90;;;;;;5054391;28;20057;-36
2022/05/29 05:14:49;;;;;;;13.30;3.15;;;10.80;99.90;;;;;;5068975;28;20059;-36
2022/05/29 05:17:16;;;;;;;12.25;2.80;;;10.80;99.90;;;;;;5070590;28;20055;-36
2022/05/29 05:19:43;;;;;;;7.15;2.60;;;10.80;99.90;;;;;;5063169;28;20489;-35
2022/05/29 05:22:09;;;;;;;10.88;2.28;;;10.90;99.90;;;;;;5070778;28;20047;-36
2022/05/29 05:24:37;;;;;;;11.57;3.05;;;10.90;99.90;;;;;;5064631;28;20052;-36
2022/05/29 05:27:05;;;;;;;13.73;2.83;;;10.90;99.90;;;;;;5062845;28;20053;-36
2022/05/29 05:29:31;;;;;;;13.55;2.78;;;10.90;99.90;;;;;;5068208;28;20062;-36
2022/05/29 05:31:59;;;;;;;14.45;3.63;;;11.00;99.90;;;;;;5070081;28;20049;-36
2022/05/29 05:34:27;;;;;;;12.32;2.65;;;11.00;99.90;;;;;;5060456;28;20469;-36
2022/05/29 05:36:54;;;;;;;9.68;2.42;;;11.00;99.90;;;;;;5071664;28;20059;-36
2022/05/29 05:39:21;;;;;;;11.77;2.50;;;11.00;99.90;;;;;;5062187;28;20053;-36
2022/05/29 05:41:47;;;;;;;16.98;2.70;;;11.10;99.90;;;;;;5055280;28;20045;-35
2022/05/29 05:44:14;;;;;;;15.02;2.90;;;11.10;99.90;;;;;;5054660;28;20480;-35
2022/05/29 05:46:44;;;;;;;10.55;2.55;;;11.10;99.90;;;;;;5063037;28;20128;-35
2022/05/29 05:49:12;;;;;;;9.57;2.78;;;11.10;99.90;;;;;;5070181;28;20131;-35
2022/05/29 05:51:39;;;;;;;12.85;2.50;;;11.10;99.90;;;;;;5060858;28;20049;-35
2022/05/29 05:54:06;;;;;;;14.18;3.15;;;11.20;99.90;;;;;;5068544;28;20404;-35
2022/05/29 05:56:33;;;;;;;11.32;3.08;;;11.20;99.90;;;;;;5064894;28;20053;-35
2022/05/29 05:58:59;;;;;;;12.90;2.70;;;11.20;99.90;;;;;;5055795;28;20052;-34
2022/05/29 06:01:26;;;;;;;13.00;2.65;;;11.30;99.90;;;;;;5056354;28;20052;-34
2022/05/29 06:03:53;;;;;;;17.55;3.13;;;11.40;99.90;;;;;;5060062;28;20132;-34
2022/05/29 06:06:21;;;;;;;16.48;3.80;;;11.40;99.90;;;;;;5061862;28;20055;-34
2022/05/29 06:08:48;;;;;;;12.05;2.85;;;11.50;99.90;;;;;;5054781;28;20072;-34
2022/05/29 06:11:14;;;;;;;13.38;3.20;;;11.50;99.90;;;;;;5065351;28;20056;-34
2022/05/29 06:13:41;;;;;;;14.63;2.85;;;11.50;99.90;;;;;;5058803;28;20040;-34
2022/05/29 06:16:08;;;;;;;12.60;3.47;;;11.60;99.90;;;;;;5059343;28;20084;-34
2022/05/29 06:18:35;;;;;;;14.98;3.33;;;11.60;99.90;;;;;;5060314;28;20500;-33
2022/05/29 06:21:04;;;;;;;13.13;3.28;;;11.60;99.90;;;;;;5068307;28;20051;-33
2022/05/29 06:23:32;;;;;;;16.23;2.90;;;11.60;99.90;;;;;;5059946;28;20051;-34
2022/05/29 06:26:01;;;;;;;18.25;3.20;;;11.70;99.90;;;;;;5056868;28;20071;-33
2022/05/29 06:28:28;;;;;;;9.90;2.50;;;11.70;99.90;;;;;;5071047;28;20485;-33
2022/05/29 06:30:55;;;;;;;13.73;2.70;;;11.70;99.90;;;;;;5064750;28;20055;-33
2022/05/29 06:33:21;;;;;;;16.05;2.58;;;11.70;99.90;;;;;;5059823;28;20052;-33
2022/05/29 06:35:48;;;;;;;15.77;2.65;;;11.70;99.90;;;;;;5054958;28;20051;-34
2022/05/29 06:38:15;;;;;;;15.45;2.53;;;11.70;99.90;;;;;;5053763;28;20513;-34
2022/05/29 06:40:47;;;;;;;13.05;2.03;;;11.70;99.90;;;;;;5058095;28;20053;-34
2022/05/29 06:43:13;;;;;;;15.10;2.58;;;11.60;99.90;;;;;;5055361;28;20057;-34
2022/05/29 06:45:40;;;;;;;13.27;2.50;;;11.60;99.90;;;;;;5065285;28;20420;-34
2022/05/29 06:48:07;;;;;;;17.27;2.50;;;11.50;99.90;;;;;;5072234;28;20044;-35
2022/05/29 06:50:34;;;;;;;15.48;2.60;;;11.50;99.90;;;;;;5062685;28;20051;-35
2022/05/29 06:53:01;;;;;;;13.65;2.30;;;11.50;99.90;;;;;;5068720;28;20052;-35
2022/05/29 06:55:27;;;;;;;15.52;2.58;;;11.50;99.90;;;;;;5056829;28;20056;-35
2022/05/29 06:57:55;;;;;;;14.00;2.67;;;11.50;99.90;;;;;;5055555;28;20052;-34
2022/05/29 07:08:38;;;;;;;12.57;2.65;;;11.70;99.90;;;;;;5061049;28;20484;-35
2022/05/29 07:11:08;;;;;;;11.13;2.08;;;11.80;99.90;;;;;;5067763;28;20056;-34
2022/05/29 07:13:36;;;;;;;13.63;2.40;;;11.90;99.90;;;;;;5071286;28;20060;-35
2022/05/29 07:16:03;;;;;;;14.90;2.90;;;11.90;99.90;;;;;;5065013;28;20048;-34
2022/05/29 07:18:30;;;;;;;21.20;3.00;;;11.90;99.90;;;;;;5069483;28;20044;-35
2022/05/29 07:20:59;;;;;;;17.05;3.25;;;11.90;99.90;;;;;;5064882;28;20512;-35
2022/05/29 07:23:26;;;;;;;17.70;2.42;;;12.00;99.90;;;;;;5063731;28;20397;-34
2022/05/29 07:25:53;;;;;;;13.27;2.88;;;12.00;99.90;;;;;;5069797;28;20052;-34
2022/05/29 07:28:20;;;;;;;17.38;2.90;;;12.00;99.90;;;;;;5064012;28;20550;-35
2022/05/29 07:30:49;;;;;;;16.65;2.60;;;12.00;99.90;;;;;;5060637;28;20045;-34
2022/05/29 07:33:16;;;;;;;11.48;2.15;;;12.00;99.90;;;;;;5055601;28;20507;-34
2022/05/29 07:35:43;;;;;;;26.65;3.22;;;12.10;99.90;;;;;;5054653;28;20053;-34
2022/05/29 07:38:09;;;;;;;18.45;2.90;;;12.10;99.90;;;;;;5054622;28;20523;-35
2022/05/29 07:40:36;;;;;;;14.90;2.72;;;12.20;99.90;;;;;;5066201;28;20094;-34
2022/05/29 07:43:22;;;;;;;14.80;3.35;;;12.20;99.90;;;;;;5064037;28;20079;-33
2022/05/29 07:45:52;;;;;;;16.55;3.10;;;12.30;99.90;;;;;;5062289;28;20627;-34
2022/05/29 07:48:19;;;;;;;18.92;2.67;;;12.30;99.90;;;;;;5054906;28;20083;-34
2022/05/29 07:50:46;;;;;;;21.60;3.53;;;12.30;99.90;;;;;;5066802;28;20049;-33
2022/05/29 07:53:13;;;;;;;17.13;3.20;;;12.40;99.90;;;;;;5057885;28;20561;-33
2022/05/29 07:55:39;;;;;;;14.50;2.67;;;12.50;99.90;;;;;;5061511;28;20048;-33
2022/05/29 07:58:06;;;;;;;12.85;2.50;;;12.50;99.90;;;;;;5063411;28;20063;-33
2022/05/29 08:00:33;;;;;;;17.23;2.92;;;12.60;99.90;;;;;;5051973;28;20087;-33
2022/05/29 08:03:02;;;;;;;14.35;2.42;;;12.70;99.90;;;;;;5060809;28;20097;-33
2022/05/29 08:05:29;;;;;;;9.98;1.88;;;12.80;99.90;;;;;;5064391;28;20052;-33
2022/05/29 08:07:56;;;;;;;16.23;3.03;;;12.80;99.90;;;;;;5066566;28;20062;-34
2022/05/29 08:10:23;;;;;;;10.85;2.25;;;12.80;99.90;;;;;;5074412;28;20055;-34
2022/05/29 08:12:49;;;;;;;11.82;2.20;;;12.90;99.90;;;;;;5058290;28;20499;-34
2022/05/29 08:15:16;;;;;;;13.38;2.25;;;12.90;99.90;;;;;;5068133;28;20052;-34
2022/05/29 08:17:43;;;;;;;12.48;1.88;;;12.90;99.90;;;;;;5056697;28;20056;-34
2022/05/29 08:20:12;;;;;;;13.95;2.25;;;12.90;99.90;;;;;;5059891;28;20044;-34
2022/05/29 08:22:39;;;;;;;9.80;1.90;;;12.90;99.90;;;;;;5055351;28;20041;-34
2022/05/29 08:30:46;;;;;;;9.52;1.70;;;13.00;99.90;;;;;;5057620;28;20448;-35
2022/05/29 08:33:14;;;;;;;9.52;1.77;;;12.90;99.90;;;;;;5062877;28;20420;-34
2022/05/29 08:35:43;;;;;;;8.43;1.75;;;12.90;99.90;;;;;;5061778;28;20404;-35
2022/05/29 08:38:10;;;;;;;10.50;1.65;;;12.90;99.90;;;;;;5071743;28;20515;-34
2022/05/29 08:40:41;;;;;;;11.70;2.45;;;12.90;99.90;;;;;;5066006;28;20486;-34
2022/05/29 08:43:09;;;;;;;8.67;1.17;;;12.90;99.90;;;;;;5056565;28;20049;-34
2022/05/29 08:45:37;;;;;;;9.10;1.05;;;12.90;99.90;;;;;;5066140;28;20501;-34
2022/05/29 08:48:05;;;;;;;8.27;1.20;;;13.00;99.90;;;;;;5068938;28;20051;-35
2022/05/29 08:50:34;;;;;;;10.10;1.92;;;13.00;99.90;;;;;;5065476;28;20053;-34
2022/05/29 08:53:03;;;;;;;7.53;1.25;;;13.10;99.90;;;;;;5056622;28;20140;-34
2022/05/29 08:55:32;;;;;;;7.28;1.40;;;13.20;99.90;;;;;;5061007;28;20052;-34
2022/05/29 08:58:15;;;;;;;7.55;1.45;;;13.30;99.90;;;;;;5083763;28;20053;-34
2022/05/29 09:00:51;;;;;;;8.98;1.55;;;13.30;99.90;;;;;;5060153;28;20088;-34
2022/05/29 09:03:31;;;;;;;12.60;1.55;;;13.30;99.90;;;;;;5059495;28;20473;-34
2022/05/29 09:05:59;;;;;;;8.98;1.58;;;13.40;99.80;;;;;;5058540;28;20107;-35
2022/05/29 09:08:31;;;;;;;9.82;1.30;;;13.30;99.90;;;;;;5065194;28;20370;-34
2022/05/29 09:11:00;;;;;;;9.68;1.80;;;13.30;99.80;;;;;;5058568;28;20049;-34
2022/05/29 09:13:28;;;;;;;9.00;1.60;;;13.30;99.80;;;;;;5067120;28;20048;-34
2022/05/29 09:15:57;;;;;;;8.93;1.38;;;13.30;99.90;;;;;;5057310;28;20053;-35
2022/05/29 09:18:26;;;;;;;10.90;1.60;;;13.30;99.90;;;;;;5061040;28;20080;-34
2022/05/29 09:20:54;;;;;;;11.02;2.00;;;13.30;99.90;;;;;;5056702;28;20049;-35
2022/05/29 09:23:23;;;;;;;16.52;1.63;;;13.40;99.90;;;;;;5060320;28;20433;-34
2022/05/29 09:25:51;;;;;;;9.45;1.80;;;13.40;99.90;;;;;;5063847;28;20067;-34
2022/05/29 09:28:24;;;;;;;5.50;1.60;;;13.50;99.70;;;;;;5067557;28;20047;-34
2022/05/29 09:30:51;;;;;;;5.95;1.17;;;13.50;99.90;;;;;;5063641;28;20055;-34
2022/05/29 09:33:20;;;;;;;6.97;1.20;;;13.50;99.40;;;;;;5070964;28;20056;-34
2022/05/29 09:35:50;;;;;;;5.15;1.23;;;13.60;99.50;;;;;;5068590;28;20370;-34
2022/05/29 09:38:23;;;;;;;5.15;1.00;;;13.70;99.40;;;;;;5074364;28;20053;-34
2022/05/29 09:40:56;;;;;;;6.97;1.10;;;13.70;98.70;;;;;;5070021;28;20048;-34
2022/05/29 09:43:24;;;;;;;5.25;1.17;;;13.80;98.90;;;;;;5066933;28;20060;-34
2022/05/29 09:45:51;;;;;;;8.32;1.20;;;14.00;98.90;;;;;;5068135;28;20049;-34
2022/05/29 09:51:15;;;;;;;7.55;1.20;;;14.20;98.20;;;;;;5055087;28;20052;-34
2022/05/29 09:53:44;;;;;;;10.35;1.55;;;14.30;98.10;;;;;;5070265;28;20063;-34
2022/05/29 09:56:13;;;;;;;8.27;1.73;;;14.30;97.80;;;;;;5056717;28;20382;-34
2022/05/29 09:58:46;;;;;;;8.40;1.58;;;14.20;97.80;;;;;;5067576;28;20040;-34
2022/05/29 10:01:13;;;;;;;10.55;1.70;;;14.30;98.10;;;;;;5071994;28;20048;-34
2022/05/29 10:03:45;;;;;;;11.30;1.75;;;14.40;98.10;;;;;;5066434;28;20423;-35
2022/05/29 10:06:14;;;;;;;12.35;2.10;;;14.30;97.90;;;;;;5070181;28;20058;-35
2022/05/29 10:08:41;;;;;;;7.72;1.45;;;14.10;98.40;;;;;;5072003;28;20044;-34
2022/05/29 10:11:18;;;;;;;9.88;1.38;;;14.10;98.80;;;;;;5059207;28;20445;-34
2022/05/29 10:13:45;;;;;;;6.60;1.48;;;14.00;99.10;;;;;;5073434;28;20051;-34
2022/05/29 10:16:12;;;;;;;10.25;1.45;;;13.90;99.50;;;;;;5070828;28;20071;-33
2022/05/29 10:18:39;;;;;;;8.02;1.50;;;14.00;99.90;;;;;;5072472;28;20061;-34
2022/05/29 10:21:14;;;;;;;15.60;2.03;;;14.00;99.50;;;;;;5073095;28;20122;-34
2022/05/29 10:23:40;;;;;;;9.70;1.60;;;14.00;99.10;;;;;;5057891;28;20141;-34
2022/05/29 10:26:11;;;;;;;5.57;1.20;;;14.00;99.10;;;;;;5056151;28;20049;-34
2022/05/29 10:28:39;;;;;;;8.00;1.48;;;14.00;98.70;;;;;;5070502;28;20497;-34
2022/05/29 10:31:06;;;;;;;7.20;1.30;;;14.00;98.70;;;;;;5063062;28;20048;-34
2022/05/29 10:33:34;;;;;;;9.73;1.85;;;14.00;98.80;;;;;;5068895;28;20048;-34
2022/05/29 10:36:11;;;;;;;9.48;1.60;;;13.90;98.70;;;;;;5064775;28;20393;-33
2022/05/29 10:38:38;;;;;;;8.00;1.42;;;13.80;98.10;;;;;;5066901;28;20055;-33
2022/05/29 10:41:06;;;;;;;7.18;1.20;;;13.70;98.90;;;;;;5071347;28;20053;-33
2022/05/29 10:43:45;;;;;;;7.47;1.27;;;13.60;98.90;;;;;;5072728;28;20147;-33
2022/05/29 10:46:15;;;;;;;6.28;1.20;;;13.60;99.10;;;;;;5074187;28;20040;-33
2022/05/29 10:49:25;;;;;;;6.80;1.40;;;13.60;99.00;;;;;;5074045;28;20063;-33
2022/05/29 10:52:17;;;;;;;8.15;1.00;;;13.60;99.10;;;;;;5046053;28;20178;-34
2022/05/29 10:55:03;;;;;;;6.55;1.13;;;13.70;99.20;;;;;;5064697;28;20059;-34
2022/05/29 10:57:41;;;;;;;4.38;1.10;;;13.90;99.20;;;;;;5074236;28;20408;-34
2022/05/29 11:00:13;;;;;;;6.53;1.52;;;14.10;98.80;;;;;;5073240;28;20095;-34
2022/05/29 11:03:19;;;;;;;3.90;0.90;;;14.30;98.70;;;;;;5073604;28;20048;-34
2022/05/29 11:06:13;;;;;;;4.50;1.10;;;14.50;98.20;;;;;;5073961;28;20063;-34
2022/05/29 11:08:45;;;;;;;4.57;0.93;;;14.70;96.90;;;;;;5058165;28;20048;-33
2022/05/29 11:11:19;;;;;;;7.68;1.33;;;14.80;96.90;;;;;;5072663;28;20044;-34
2022/05/29 11:14:21;;;;;;;7.80;1.33;;;14.80;96.10;;;;;;5072591;28;20052;-34
2022/05/29 11:16:56;;;;;;;7.20;1.38;;;14.70;96.00;;;;;;5067688;28;20078;-34
2022/05/29 11:19:52;;;;;;;8.80;1.63;;;14.60;96.50;;;;;;5073491;28;20101;-33
2022/05/29 11:22:24;;;;;;;7.68;1.63;;;14.60;96.30;;;;;;5073896;28;20048;-33
2022/05/29 11:25:08;;;;;;;8.65;1.05;;;14.50;96.60;;;;;;5072447;28;20059;-33
2022/05/29 11:28:07;;;;;;;13.07;1.58;;;14.50;96.50;;;;;;5073606;28;20484;-34
2022/05/29 11:30:38;;;;;;;5.78;1.30;;;14.60;96.90;;;;;;5073289;28;20057;-33
2022/05/29 11:33:20;;;;;;;8.73;1.50;;;14.60;96.90;;;;;;5073637;28;20056;-34
2022/05/29 11:36:00;;;;;;;9.73;1.60;;;14.70;96.80;;;;;;5072252;28;20060;-34
2022/05/29 11:38:52;;;;;;;9.00;1.45;;;14.80;96.50;;;;;;5073280;28;20087;-34
2022/05/29 11:41:20;;;;;;;9.93;1.80;;;14.90;95.90;;;;;;5071946;28;20044;-34
2022/05/29 11:43:49;;;;;;;14.18;3.00;;;15.00;96.40;;;;;;5058574;28;20055;-34
2022/05/29 11:51:53;;;;;;;7.40;1.27;;;15.30;95.20;;;;;;5072523;28;20485;-34
2022/05/29 11:54:21;;;;;;;5.82;1.35;;;15.30;95.20;;;;;;5072178;28;20499;-34
2022/05/29 11:56:50;;;;;;;8.20;1.60;;;15.30;95.00;;;;;;5072718;28;20063;-34
2022/05/29 11:59:18;;;;;;;15.00;1.60;;;15.30;94.90;;;;;;5072980;28;20058;-34
2022/05/29 12:01:48;;;;;;;8.95;1.85;;;15.20;94.60;;;;;;5071574;28;20048;-34
2022/05/29 12:04:19;;;;;;;10.57;2.63;;;15.00;95.00;;;;;;5072647;28;20055;-34
2022/05/29 12:06:48;;;;;;;10.02;1.92;;;14.90;95.40;;;;;;5073088;28;20143;-34
2022/05/29 12:09:17;;;;;;;7.20;1.50;;;14.70;95.00;;;;;;5068109;28;20049;-34
2022/05/29 12:11:45;;;;;;;9.18;1.63;;;14.60;95.50;;;;;;5070544;28;20052;-33
2022/05/29 12:14:15;;;;;;;8.88;1.67;;;14.50;95.80;;;;;;5071699;28;20078;-33
2022/05/29 12:16:42;;;;;;;8.20;1.58;;;14.50;95.90;;;;;;5071763;28;20113;-33
2022/05/29 12:19:12;;;;;;;7.53;1.60;;;14.50;95.80;;;;;;5072646;28;20056;-33
2022/05/29 12:21:42;;;;;;;10.80;1.60;;;14.50;96.00;;;;;;5072793;28;20090;-33
2022/05/29 12:24:10;;;;;;;8.23;1.13;;;14.60;95.90;;;;;;5071498;28;20171;-33
2022/05/29 12:26:39;;;;;;;7.45;1.50;;;14.70;95.70;;;;;;5072475;28;20053;-33
2022/05/29 12:29:08;;;;;;;8.15;1.52;;;14.80;95.30;;;;;;5072631;28;20059;-33
2022/05/29 12:31:37;;;;;;;14.27;1.70;;;14.90;95.10;;;;;;5071511;28;20059;-34
2022/05/29 12:34:04;;;;;;;11.40;1.50;;;15.10;95.00;;;;;;5071790;28;20408;-34
2022/05/29 12:36:52;;;;;;;11.05;2.25;;;15.20;94.80;;;;;;5071339;28;20056;-34
2022/05/29 12:39:26;;;;;;;7.97;1.50;;;15.30;94.40;;;;;;5071385;28;20056;-34
2022/05/29 12:42:14;;;;;;;6.93;1.67;;;15.40;94.50;;;;;;5072560;28;20131;-33
2022/05/29 12:45:06;;;;;;;11.73;1.55;;;15.40;94.50;;;;;;5071536;28;20051;-35
2022/05/29 12:47:53;;;;;;;7.07;1.50;;;15.50;94.30;;;;;;5072959;28;20074;-33
2022/05/29 12:50:25;;;;;;;11.93;2.20;;;15.60;94.20;;;;;;5072441;28;20053;-34
2022/05/29 12:53:19;;;;;;;8.98;1.45;;;15.50;94.40;;;;;;5071495;28;20056;-33
2022/05/29 12:55:57;;;;;;;12.73;1.70;;;15.50;93.70;;;;;;5070584;28;20056;-33
2022/05/29 12:58:45;;;;;;;10.60;2.08;;;15.40;94.00;;;;;;5072188;28;20095;-34
2022/05/29 13:01:21;;;;;;;9.65;2.17;;;15.30;93.50;;;;;;5074727;28;20052;-34
2022/05/29 13:04:07;;;;;;;14.27;2.40;;;15.20;94.00;;;;;;5074749;28;20143;-34
2022/05/29 13:06:58;;;;;;;14.60;2.30;;;15.10;94.30;;;;;;5056337;28;20085;-32
2022/05/29 13:09:50;;;;;;;8.55;1.38;;;15.10;93.90;;;;;;5071864;28;20086;-34
2022/05/29 13:12:19;;;;;;;11.80;1.88;;;15.00;93.90;;;;;;5070113;28;20084;-34
2022/05/29 13:14:47;;;;;;;9.43;2.55;;;14.90;94.20;;;;;;5075089;28;20055;-34
2022/05/29 13:17:14;;;;;;;11.32;2.28;;;15.00;94.00;;;;;;5075602;28;20128;-34
2022/05/29 13:20:00;;;;;;;8.70;1.65;;;15.00;94.00;;;;;;5075536;28;20056;-34
2022/05/29 13:22:55;;;;;;;11.25;2.10;;;15.00;93.40;;;;;;5075887;28;20390;-34
2022/05/29 13:25:24;;;;;;;14.50;1.80;;;15.00;94.00;;;;;;5066359;28;20079;-34